Time;durP1;ratioP1;P1;durP2;ratioP2;P2;SDS_P1;SDS_P2;PMS_P1;PMS_P2;Temp;Humidity;BMP_temperature;BMP_pressure;BME280_temperature;BME280_humidity;BME280_pressure;Samples;Min_cycle;Max_cycle;Signal;HPM_P1;HPM_P2
2022/01/06 00:00:00;;;;;;;;;;;20.90;43.40;;;;;;6297393;28;19951;-45
2022/01/06 00:03:01;;;;;;;;;;;20.60;43.20;;;;;;6292649;28;19951;-43
2022/01/06 00:06:07;;;;;;;;;;;21.10;43.50;;;;;;6310792;28;19931;-46
2022/01/06 00:09:10;;;;;;;;;;;21.10;44.00;;;;;;6309277;28;20026;-45
2022/01/06 00:12:15;;;;;;;;;;;21.10;43.30;;;;;;6293357;28;19931;-42
2022/01/06 00:15:31;;;;;;;;;;;21.00;43.40;;;;;;6308932;28;20672;-45
2022/01/06 00:23:05;;;;;;;;;;;20.70;43.30;;;;;;6304907;28;20686;-42
2022/01/06 00:25:19;;;;;;;;;;;21.10;43.40;;;;;;6293349;28;19927;-43
2022/01/06 00:28:20;;;;;;;;;;;20.60;43.90;;;;;;6315804;28;20014;-47
2022/01/06 00:31:21;;;;;;;;;;;21.00;43.50;;;;;;6311776;28;19924;-44
2022/01/06 00:34:23;;;;;;;;;;;20.60;43.30;;;;;;6308539;28;20419;-42
2022/01/06 00:37:25;;;;;;;;;;;21.40;43.70;;;;;;6309102;28;19951;-45
2022/01/06 00:40:27;;;;;;;;;;;21.00;43.30;;;;;;6312574;28;20001;-45
2022/01/06 00:43:29;;;;;;;;;;;19.80;42.70;;;;;;6306652;28;19923;-42
2022/01/06 00:46:30;;;;;;;;;;;20.60;43.30;;;;;;6315410;28;20026;-43
2022/01/06 00:49:31;;;;;;;;;;;20.50;43.30;;;;;;6304445;28;19927;-44
2022/01/06 00:52:34;;;;;;;;;;;21.00;43.50;;;;;;6299540;28;20632;-44
2022/01/06 00:55:36;;;;;;;;;;;20.50;43.10;;;;;;6308414;28;19966;-48
2022/01/06 00:58:37;;;;;;;;;;;20.60;43.20;;;;;;6308579;28;19959;-43
2022/01/06 01:01:39;;;;;;;;;;;21.10;43.50;;;;;;6306620;27;20018;-46
2022/01/06 01:04:40;;;;;;;;;;;20.90;43.40;;;;;;6314526;28;19927;-43
2022/01/06 01:07:43;;;;;;;;;;;20.80;43.30;;;;;;6314985;28;20793;-43
2022/01/06 01:10:45;;;;;;;;;;;21.20;43.40;;;;;;6318779;28;19923;-43
2022/01/06 01:13:55;;;;;;;;;;;20.30;43.10;;;;;;6318075;28;20037;-46
2022/01/06 01:16:57;;;;;;;;;;;20.50;43.20;;;;;;6318971;28;19967;-43
2022/01/06 01:19:59;;;;;;;;;;;21.00;43.50;;;;;;6317639;28;20018;-44
2022/01/06 01:23:01;;;;;;;;;;;20.60;43.20;;;;;;6297179;28;20014;-43
2022/01/06 01:26:02;;;;;;;;;;;20.90;43.50;;;;;;6310471;28;20089;-42
2022/01/06 01:29:03;;;;;;;;;;;20.40;43.20;;;;;;6319068;28;20668;-43
2022/01/06 01:32:05;;;;;;;;;;;20.70;43.40;;;;;;6319547;28;19937;-42
2022/01/06 01:35:08;;;;;;;;;;;20.50;43.10;;;;;;6314494;28;20061;-43
2022/01/06 01:38:10;;;;;;;;;;;20.70;43.30;;;;;;6311595;28;20038;-42
2022/01/06 01:41:12;;;;;;;;;;;20.90;42.50;;;;;;6307131;28;20054;-43
2022/01/06 01:44:16;;;;;;;;;;;20.70;43.30;;;;;;6286430;28;20316;-42
2022/01/06 01:47:28;;;;;;;;;;;20.40;43.10;;;;;;6280503;28;19923;-42
2022/01/06 01:50:29;;;;;;;;;;;20.60;43.20;;;;;;6314507;28;20042;-41
2022/01/06 01:53:31;;;;;;;;;;;20.50;43.20;;;;;;6308290;28;19924;-44
2022/01/06 01:56:33;;;;;;;;;;;20.70;43.30;;;;;;6306552;28;20603;-45
2022/01/06 01:59:34;;;;;;;;;;;20.70;43.30;;;;;;6313295;28;20028;-45
2022/01/06 02:02:36;;;;;;;;;;;20.50;43.20;;;;;;6307921;28;19996;-44
2022/01/06 02:05:38;;;;;;;;;;;20.50;43.20;;;;;;6314152;28;19928;-45
2022/01/06 02:08:41;;;;;;;;;;;20.70;43.10;;;;;;6320346;28;19967;-41
2022/01/06 02:11:42;;;;;;;;;;;20.90;43.30;;;;;;6301691;28;20400;-42
2022/01/06 02:14:43;;;;;;;;;;;20.50;43.10;;;;;;6295337;28;20034;-43
2022/01/06 02:17:44;;;;;;;;;;;20.70;43.30;;;;;;6319961;28;19928;-41
2022/01/06 02:20:46;;;;;;;;;;;20.40;43.20;;;;;;6317597;28;19982;-44
2022/01/06 02:23:48;;;;;;;;;;;20.40;43.10;;;;;;6314425;28;20678;-42
2022/01/06 02:26:49;;;;;;;;;;;20.50;43.30;;;;;;6311425;28;20027;-43
2022/01/06 02:29:51;;;;;;;;;;;20.40;43.20;;;;;;6316629;28;20626;-43
2022/01/06 02:32:53;;;;;;;;;;;20.50;43.10;;;;;;6305655;28;20015;-44
2022/01/06 02:35:55;;;;;;;;;;;20.70;43.20;;;;;;6290095;28;19926;-44
2022/01/06 02:38:57;;;;;;;;;;;20.30;43.20;;;;;;6304224;28;19927;-43
2022/01/06 02:41:58;;;;;;;;;;;20.80;43.40;;;;;;6309000;28;19931;-41
2022/01/06 02:44:59;;;;;;;;;;;20.60;43.40;;;;;;6309631;28;22056;-44
2022/01/06 02:48:08;;;;;;;;;;;20.30;43.80;;;;;;6304669;28;20011;-42
2022/01/06 02:51:10;;;;;;;;;;;20.70;43.30;;;;;;6314705;28;20026;-43
2022/01/06 02:54:12;;;;;;;;;;;20.20;43.00;;;;;;6311645;28;19963;-43
2022/01/06 02:57:13;;;;;;;;;;;20.40;43.10;;;;;;6296323;28;19923;-42
2022/01/06 03:00:16;;;;;;;;;;;20.30;43.00;;;;;;6320338;28;19931;-41
2022/01/06 03:03:17;;;;;;;;;;;20.20;43.00;;;;;;6296304;28;20645;-45
2022/01/06 03:06:19;;;;;;;;;;;20.30;43.10;;;;;;6312436;28;19924;-42
2022/01/06 03:09:26;;;;;;;;;;;20.60;43.80;;;;;;6316858;28;20089;-42
2022/01/06 03:12:33;;;;;;;;;;;20.90;43.40;;;;;;6316080;28;19924;-42
2022/01/06 03:15:34;;;;;;;;;;;21.00;43.60;;;;;;6314917;28;19931;-43
2022/01/06 03:18:35;;;;;;;;;;;20.40;43.20;;;;;;6314600;28;19934;-42
2022/01/06 03:21:37;;;;;;;;;;;20.30;43.10;;;;;;6314995;28;19973;-42
2022/01/06 03:24:38;;;;;;;;;;;20.30;43.20;;;;;;6314310;28;19966;-46
2022/01/06 03:27:41;;;;;;;;;;;20.30;43.10;;;;;;6313441;28;19923;-41
2022/01/06 03:30:43;;;;;;;;;;;20.50;43.20;;;;;;6317624;28;20025;-41
2022/01/06 03:33:44;;;;;;;;;;;20.30;43.20;;;;;;6319320;28;20000;-41
2022/01/06 03:36:46;;;;;;;;;;;20.20;43.10;;;;;;6324150;28;19971;-43
2022/01/06 03:39:47;;;;;;;;;;;20.40;43.20;;;;;;6318280;28;20046;-42
2022/01/06 03:42:49;;;;;;;;;;;20.70;43.40;;;;;;6319109;28;20037;-43
2022/01/06 03:45:50;;;;;;;;;;;20.60;43.30;;;;;;6324509;28;19923;-43
2022/01/06 03:48:51;;;;;;;;;;;20.30;43.20;;;;;;6324582;28;19970;-44
2022/01/06 03:51:53;;;;;;;;;;;20.30;43.10;;;;;;6320306;28;19931;-42
2022/01/06 03:54:55;;;;;;;;;;;20.50;43.20;;;;;;6320449;28;19923;-41
2022/01/06 03:57:56;;;;;;;;;;;20.30;43.20;;;;;;6314994;28;19930;-42
2022/01/06 04:00:57;;;;;;;;;;;20.30;43.10;;;;;;6314949;28;20257;-42
2022/01/06 04:03:59;;;;;;;;;;;20.30;43.20;;;;;;6302995;28;19928;-41
2022/01/06 04:07:01;;;;;;;;;;;20.30;43.20;;;;;;6296856;28;19974;-41
2022/01/06 04:10:03;;;;;;;;;;;20.40;43.20;;;;;;6312219;28;19973;-42
2022/01/06 04:13:05;;;;;;;;;;;21.10;43.50;;;;;;6303947;28;20584;-46
2022/01/06 04:16:09;;;;;;;;;;;20.50;43.30;;;;;;6312878;28;19935;-41
2022/01/06 04:19:10;;;;;;;;;;;20.30;43.10;;;;;;6298031;28;19931;-43
2022/01/06 04:22:12;;;;;;;;;;;20.30;43.20;;;;;;6309163;28;20038;-42
2022/01/06 04:25:13;;;;;;;;;;;20.70;43.40;;;;;;6314295;28;19930;-41
2022/01/06 04:28:15;;;;;;;;;;;20.40;43.30;;;;;;6315173;28;20654;-42
2022/01/06 04:31:16;;;;;;;;;;;20.30;43.00;;;;;;6305385;28;19928;-41
2022/01/06 04:34:18;;;;;;;;;;;20.50;43.30;;;;;;6321107;28;20017;-41
2022/01/06 04:37:20;;;;;;;;;;;21.00;43.50;;;;;;6321382;27;20032;-44
2022/01/06 04:40:21;;;;;;;;;;;20.20;42.80;;;;;;6321562;28;20050;-40
2022/01/06 04:43:23;;;;;;;;;;;20.60;42.70;;;;;;6321028;28;20014;-42
2022/01/06 04:46:24;;;;;;;;;;;20.70;43.30;;;;;;6318746;28;20691;-42
2022/01/06 04:49:25;;;;;;;;;;;20.20;42.90;;;;;;6328084;28;19931;-40
2022/01/06 04:52:27;;;;;;;;;;;20.20;43.00;;;;;;6316564;28;20331;-38
2022/01/06 04:55:29;;;;;;;;;;;20.70;43.20;;;;;;6298604;28;20445;-42
2022/01/06 04:58:32;;;;;;;;;;;20.60;43.10;;;;;;6309146;28;19958;-43
2022/01/06 05:01:34;;;;;;;;;;;20.30;43.00;;;;;;6314091;28;19927;-38
2022/01/06 05:04:36;;;;;;;;;;;20.20;42.80;;;;;;6320316;28;20746;-43
2022/01/06 05:07:38;;;;;;;;;;;20.20;43.00;;;;;;6311074;28;19981;-40
2022/01/06 05:10:40;;;;;;;;;;;20.40;43.10;;;;;;6315721;28;19959;-42
2022/01/06 05:13:41;;;;;;;;;;;20.80;43.30;;;;;;6317212;28;19927;-40
2022/01/06 05:16:42;;;;;;;;;;;20.60;43.30;;;;;;6317982;28;19923;-39
2022/01/06 05:19:44;;;;;;;;;;;20.30;43.10;;;;;;6305113;28;19923;-39
2022/01/06 05:22:46;;;;;;;;;;;20.80;43.30;;;;;;6298985;28;19923;-39
2022/01/06 05:25:47;;;;;;;;;;;20.40;43.10;;;;;;6298420;28;19927;-39
2022/01/06 05:28:49;;;;;;;;;;;20.50;43.30;;;;;;6290040;28;20050;-41
2022/01/06 05:31:50;;;;;;;;;;;20.30;43.10;;;;;;6300965;28;20370;-39
2022/01/06 05:34:51;;;;;;;;;;;20.20;43.10;;;;;;6311518;28;20014;-39
2022/01/06 05:37:53;;;;;;;;;;;20.20;43.20;;;;;;6308710;28;20768;-39
2022/01/06 05:40:55;;;;;;;;;;;20.30;43.10;;;;;;6310897;28;19923;-42
2022/01/06 05:43:56;;;;;;;;;;;20.80;43.40;;;;;;6317339;28;19923;-45
2022/01/06 05:46:57;;;;;;;;;;;20.30;43.20;;;;;;6315415;27;20407;-39
2022/01/06 05:49:59;;;;;;;;;;;20.30;43.10;;;;;;6301346;28;20378;-41
2022/01/06 05:53:00;;;;;;;;;;;20.90;43.50;;;;;;6306069;28;20509;-40
2022/01/06 05:56:02;;;;;;;;;;;20.20;43.00;;;;;;6306824;28;20043;-41
2022/01/06 05:59:05;;;;;;;;;;;20.50;43.10;;;;;;6309750;28;19928;-42
2022/01/06 06:02:07;;;;;;;;;;;20.30;43.10;;;;;;6308581;28;20001;-41
2022/01/06 06:05:08;;;;;;;;;;;20.20;43.10;;;;;;6311104;28;20681;-42
2022/01/06 06:08:10;;;;;;;;;;;20.30;43.10;;;;;;6299581;28;20037;-44
2022/01/06 06:11:12;;;;;;;;;;;20.40;43.30;;;;;;6308336;28;19924;-42
2022/01/06 06:14:13;;;;;;;;;;;20.70;43.40;;;;;;6303460;28;19924;-47
2022/01/06 06:17:14;;;;;;;;;;;20.10;43.10;;;;;;6292587;28;19924;-42
2022/01/06 06:20:16;;;;;;;;;;;20.30;43.20;;;;;;6310309;28;20043;-40
2022/01/06 06:23:18;;;;;;;;;;;20.30;43.20;;;;;;6318352;28;19923;-39
2022/01/06 06:26:19;;;;;;;;;;;20.30;43.30;;;;;;6305708;28;20846;-39
2022/01/06 06:29:20;;;;;;;;;;;20.50;43.30;;;;;;6299705;28;20038;-39
2022/01/06 06:32:22;;;;;;;;;;;20.20;43.30;;;;;;6296811;28;19974;-39
2022/01/06 06:35:23;;;;;;;;;;;20.10;43.10;;;;;;6293353;28;19932;-41
2022/01/06 06:38:25;;;;;;;;;;;20.20;43.20;;;;;;6296946;28;19935;-43
2022/01/06 06:41:27;;;;;;;;;;;20.20;43.20;;;;;;6302969;28;19930;-42
2022/01/06 06:44:28;;;;;;;;;;;20.60;43.10;;;;;;6299618;28;20090;-42
2022/01/06 06:47:29;;;;;;;;;;;20.50;43.30;;;;;;6293717;28;19927;-44
2022/01/06 06:50:30;;;;;;;;;;;20.20;43.20;;;;;;6282487;28;19924;-41
2022/01/06 06:53:32;;;;;;;;;;;20.50;43.10;;;;;;6292918;28;19934;-41
2022/01/06 06:56:34;;;;;;;;;;;20.20;42.90;;;;;;6297368;28;19920;-41
2022/01/06 06:59:35;;;;;;;;;;;20.30;42.90;;;;;;6295356;28;19927;-43
2022/01/06 07:02:37;;;;;;;;;;;20.30;42.80;;;;;;6265449;28;20173;-42
2022/01/06 07:05:38;;;;;;;;;;;20.20;42.70;;;;;;6264171;28;20803;-41
2022/01/06 07:08:40;;;;;;;;;;;20.50;42.70;;;;;;6287023;28;19967;-40
2022/01/06 07:11:42;;;;;;;;;;;20.80;42.70;;;;;;6285098;28;19923;-41
2022/01/06 07:14:43;;;;;;;;;;;20.90;42.70;;;;;;6284004;28;20829;-42
2022/01/06 07:17:44;;;;;;;;;;;20.60;42.40;;;;;;6287165;28;20792;-40
2022/01/06 07:20:46;;;;;;;;;;;20.40;42.20;;;;;;6277486;28;20106;-40
2022/01/06 07:23:48;;;;;;;;;;;21.00;42.50;;;;;;6251511;28;19924;-40
2022/01/06 07:26:49;;;;;;;;;;;21.10;42.40;;;;;;6274758;28;20666;-40
2022/01/06 07:29:51;;;;;;;;;;;20.70;42.30;;;;;;6270876;28;21010;-42
2022/01/06 07:32:52;;;;;;;;;;;20.80;42.20;;;;;;6274252;28;19928;-40
2022/01/06 07:35:53;;;;;;;;;;;20.70;42.10;;;;;;6269328;28;21239;-42
2022/01/06 07:38:55;;;;;;;;;;;21.00;42.10;;;;;;6273632;28;19927;-45
2022/01/06 07:41:57;;;;;;;;;;;20.90;42.10;;;;;;6262623;28;19927;-41
2022/01/06 07:45:00;;;;;;;;;;;21.20;41.90;;;;;;6252833;28;20722;-41
2022/01/06 07:48:03;;;;;;;;;;;21.10;42.10;;;;;;6237684;28;20105;-43
2022/01/06 07:51:04;;;;;;;;;;;20.80;42.00;;;;;;6242010;28;19924;-40
2022/01/06 07:54:06;;;;;;;;;;;20.60;41.80;;;;;;6238366;28;21484;-41
2022/01/06 07:57:08;;;;;;;;;;;20.80;41.80;;;;;;6237004;28;20473;-42
2022/01/06 08:00:10;;;;;;;;;;;20.70;41.60;;;;;;6226457;27;19944;-42
2022/01/06 08:03:14;;;;;;;;;;;21.20;42.00;;;;;;6227751;28;19934;-41
2022/01/06 08:06:16;;;;;;;;;;;21.20;42.00;;;;;;6224092;28;19929;-43
2022/01/06 08:09:18;;;;;;;;;;;21.20;41.80;;;;;;6223337;28;21370;-41
2022/01/06 08:12:20;;;;;;;;;;;21.10;41.70;;;;;;6200911;28;20057;-41
2022/01/06 08:15:21;;;;;;;;;;;21.40;42.00;;;;;;6218214;28;21843;-43
2022/01/06 08:18:22;;;;;;;;;;;21.30;41.80;;;;;;6219443;28;20029;-41
2022/01/06 08:21:24;;;;;;;;;;;21.00;41.70;;;;;;6216913;28;19927;-44
2022/01/06 08:24:26;;;;;;;;;;;21.10;41.60;;;;;;6219449;28;20012;-42
2022/01/06 08:27:27;;;;;;;;;;;21.10;41.80;;;;;;6235682;28;20062;-43
2022/01/06 08:30:29;;;;;;;;;;;21.10;41.50;;;;;;6217357;28;21028;-41
2022/01/06 08:33:30;;;;;;;;;;;21.30;41.30;;;;;;6200473;28;19928;-39
2022/01/06 08:36:32;;;;;;;;;;;21.40;41.50;;;;;;6191232;28;20010;-41
2022/01/06 08:39:34;;;;;;;;;;;21.20;41.30;;;;;;6210160;28;19928;-44
2022/01/06 08:42:35;;;;;;;;;;;21.00;41.10;;;;;;6204010;28;20843;-41
2022/01/06 08:45:37;;;;;;;;;;;21.40;41.30;;;;;;6197067;28;19931;-44
2022/01/06 08:48:38;;;;;;;;;;;21.50;41.20;;;;;;6201483;28;19932;-42
2022/01/06 08:51:39;;;;;;;;;;;21.50;41.80;;;;;;6210861;28;20748;-44
2022/01/06 08:54:41;;;;;;;;;;;21.80;41.30;;;;;;6188553;28;20413;-40
2022/01/06 08:57:43;;;;;;;;;;;21.40;41.00;;;;;;6186721;28;20332;-41
2022/01/06 09:00:49;;;;;;;;;;;21.80;41.20;;;;;;6181844;28;19929;-42
2022/01/06 09:03:50;;;;;;;;;;;21.80;41.20;;;;;;6189114;28;20345;-42
2022/01/06 09:06:52;;;;;;;;;;;21.40;40.80;;;;;;6200868;28;20985;-41
2022/01/06 09:09:54;;;;;;;;;;;21.60;40.90;;;;;;6206287;28;20809;-40
2022/01/06 09:12:55;;;;;;;;;;;22.20;41.10;;;;;;6205657;28;19934;-42
2022/01/06 09:15:57;;;;;;;;;;;21.40;40.70;;;;;;6204334;28;19927;-43
2022/01/06 09:18:58;;;;;;;;;;;22.10;41.00;;;;;;6190835;28;21460;-41
2022/01/06 09:22:00;;;;;;;;;;;22.00;40.90;;;;;;6211314;28;19928;-41
2022/01/06 09:25:02;;;;;;;;;;;22.00;40.90;;;;;;6197576;28;19963;-41
2022/01/06 09:28:03;;;;;;;;;;;21.90;40.80;;;;;;6213144;28;19974;-41
2022/01/06 09:31:05;;;;;;;;;;;21.60;40.60;;;;;;6212020;28;19928;-41
2022/01/06 09:34:07;;;;;;;;;;;21.60;40.70;;;;;;6217501;28;19974;-40
2022/01/06 09:37:08;;;;;;;;;;;22.10;40.90;;;;;;6207211;28;19967;-42
2022/01/06 09:40:11;;;;;;;;;;;22.00;40.90;;;;;;6218373;28;19953;-42
2022/01/06 09:43:13;;;;;;;;;;;21.60;40.60;;;;;;6224936;28;21544;-40
2022/01/06 09:46:15;;;;;;;;;;;21.60;40.50;;;;;;6211812;28;19932;-41
2022/01/06 09:49:17;;;;;;;;;;;21.80;40.60;;;;;;6212574;28;19928;-43
2022/01/06 09:52:21;;;;;;;;;;;21.90;40.70;;;;;;6218816;28;20012;-41
2022/01/06 09:55:23;;;;;;;;;;;22.00;40.70;;;;;;6203558;28;19932;-42
2022/01/06 09:58:25;;;;;;;;;;;21.90;40.60;;;;;;6207054;28;21028;-43
2022/01/06 10:01:26;;;;;;;;;;;22.00;40.70;;;;;;6188784;28;19928;-45
2022/01/06 10:04:29;;;;;;;;;;;21.80;40.50;;;;;;6216081;28;19975;-40
2022/01/06 10:07:35;;;;;;;;;;;22.10;40.70;;;;;;6201843;28;19934;-41
2022/01/06 10:10:37;;;;;;;;;;;22.10;41.20;;;;;;6198629;28;19935;-40
2022/01/06 10:13:39;;;;;;;;;;;22.10;40.60;;;;;;6185270;28;19963;-42
2022/01/06 10:16:48;;;;;;;;;;;22.30;40.70;;;;;;6197344;28;19927;-42
2022/01/06 10:19:49;;;;;;;;;;;22.20;41.20;;;;;;6204459;28;19927;-42
2022/01/06 10:22:52;;;;;;;;;;;22.20;40.70;;;;;;6217856;28;20360;-40
2022/01/06 10:25:54;;;;;;;;;;;22.20;40.50;;;;;;6220279;28;20004;-42
2022/01/06 10:28:56;;;;;;;;;;;22.00;40.40;;;;;;6227059;28;19934;-46
2022/01/06 10:32:02;;;;;;;;;;;22.20;40.80;;;;;;6222124;28;19935;-41
2022/01/06 10:35:04;;;;;;;;;;;22.20;40.40;;;;;;6213669;28;19927;-42
2022/01/06 10:38:05;;;;;;;;;;;22.30;40.50;;;;;;6199338;28;20103;-42
2022/01/06 10:41:09;;;;;;;;;;;22.50;40.60;;;;;;6219561;28;19955;-42
2022/01/06 10:44:12;;;;;;;;;;;22.40;40.60;;;;;;6209319;28;20009;-42
2022/01/06 10:47:14;;;;;;;;;;;22.30;40.60;;;;;;6223363;28;19927;-45
2022/01/06 10:50:16;;;;;;;;;;;22.30;40.40;;;;;;6229893;28;19971;-43
2022/01/06 10:53:18;;;;;;;;;;;22.40;40.60;;;;;;6202274;28;19927;-42
2022/01/06 10:56:23;;;;;;;;;;;21.70;40.20;;;;;;6218339;28;19942;-42
2022/01/06 10:59:25;;;;;;;;;;;22.60;40.60;;;;;;6204580;28;20491;-42
2022/01/06 11:02:27;;;;;;;;;;;22.30;40.40;;;;;;6205866;28;19927;-45
2022/01/06 11:05:28;;;;;;;;;;;22.30;40.40;;;;;;6219469;28;19928;-41
2022/01/06 11:08:35;;;;;;;;;;;22.10;40.30;;;;;;6228464;28;20050;-40
2022/01/06 11:14:53;;;;;;;;;;;22.00;40.10;;;;;;6218546;28;19927;-43
2022/01/06 11:17:55;;;;;;;;;;;22.50;40.40;;;;;;6218049;28;20005;-43
2022/01/06 11:21:02;;;;;;;;;;;22.50;40.40;;;;;;6199347;28;19934;-41
2022/01/06 11:24:04;;;;;;;;;;;22.10;40.10;;;;;;6222221;28;20806;-43
2022/01/06 11:27:08;;;;;;;;;;;22.70;40.40;;;;;;6220963;28;21145;-42
2022/01/06 11:30:10;;;;;;;;;;;22.40;40.20;;;;;;6220061;28;20113;-44
2022/01/06 11:33:13;;;;;;;;;;;22.40;40.20;;;;;;6220512;28;19934;-44
2022/01/06 11:36:21;;;;;;;;;;;22.20;40.10;;;;;;6222406;28;19935;-45
2022/01/06 11:39:26;;;;;;;;;;;22.40;40.10;;;;;;6249440;28;21437;-42
2022/01/06 11:42:28;;;;;;;;;;;22.10;40.00;;;;;;6255408;28;19935;-43
2022/01/06 11:45:30;;;;;;;;;;;22.40;40.20;;;;;;6259542;28;19928;-46
2022/01/06 11:48:31;;;;;;;;;;;22.30;40.20;;;;;;6228681;28;19967;-41
2022/01/06 11:51:34;;;;;;;;;;;22.60;40.30;;;;;;6227529;28;19941;-44
2022/01/06 11:54:50;;;;;;;;;;;22.30;40.00;;;;;;6229406;28;19936;-43
2022/01/06 11:57:51;;;;;;;;;;;22.40;40.10;;;;;;6252705;28;20821;-44
2022/01/06 12:00:55;;;;;;;;;;;22.30;40.00;;;;;;6238390;28;19928;-46
2022/01/06 12:03:57;;;;;;;;;;;22.50;40.10;;;;;;6234820;28;19935;-43
2022/01/06 12:07:06;;;;;;;;;;;22.80;40.30;;;;;;6246090;28;19928;-43
2022/01/06 12:10:09;;;;;;;;;;;22.40;40.10;;;;;;6245555;28;19954;-45
2022/01/06 12:13:11;;;;;;;;;;;22.40;40.00;;;;;;6244673;28;21241;-46
2022/01/06 12:16:22;;;;;;;;;;;22.60;40.00;;;;;;6236562;28;20054;-43
2022/01/06 12:19:23;;;;;;;;;;;22.30;39.90;;;;;;6254010;28;19935;-42
2022/01/06 12:22:26;;;;;;;;;;;22.60;40.10;;;;;;6262895;28;19935;-43
2022/01/06 12:25:27;;;;;;;;;;;22.40;39.90;;;;;;6257519;28;20004;-41
2022/01/06 12:28:31;;;;;;;;;;;22.20;39.80;;;;;;6253258;28;20014;-43
2022/01/06 12:31:32;;;;;;;;;;;22.50;39.90;;;;;;6230214;28;19927;-43
2022/01/06 12:34:34;;;;;;;;;;;22.60;40.00;;;;;;6241446;28;21460;-43
2022/01/06 12:37:36;;;;;;;;;;;22.40;39.80;;;;;;6233599;28;21095;-41
2022/01/06 12:40:39;;;;;;;;;;;22.70;39.80;;;;;;6240023;28;21519;-43
2022/01/06 12:43:42;;;;;;;;;;;22.60;39.80;;;;;;6242087;28;20948;-43
2022/01/06 12:46:44;;;;;;;;;;;22.90;39.90;;;;;;6227231;28;20762;-43
2022/01/06 12:49:45;;;;;;;;;;;22.90;39.90;;;;;;6216936;28;19928;-43
2022/01/06 12:52:47;;;;;;;;;;;22.90;39.90;;;;;;6222648;28;19928;-44
2022/01/06 12:55:48;;;;;;;;;;;22.60;39.70;;;;;;6234343;28;19935;-46
2022/01/06 12:58:51;;;;;;;;;;;22.80;39.80;;;;;;6219970;28;19928;-42
2022/01/06 13:01:54;;;;;;;;;;;22.60;39.60;;;;;;6198810;28;19932;-47
2022/01/06 13:04:55;;;;;;;;;;;22.70;39.60;;;;;;6196904;28;21454;-46
2022/01/06 13:08:00;;;;;;;;;;;22.40;39.50;;;;;;6196233;28;19928;-45
2022/01/06 13:11:04;;;;;;;;;;;22.80;39.70;;;;;;6213332;28;20009;-45
2022/01/06 13:14:08;;;;;;;;;;;22.50;39.60;;;;;;6180650;28;20046;-44
2022/01/06 13:17:11;;;;;;;;;;;22.80;40.00;;;;;;6217441;28;19981;-44
2022/01/06 13:20:14;;;;;;;;;;;22.90;39.70;;;;;;6191967;28;20828;-44
2022/01/06 13:26:34;;;;;;;;;;;22.70;39.60;;;;;;6206927;28;19928;-45
2022/01/06 13:29:36;;;;;;;;;;;22.70;39.60;;;;;;6215455;28;19935;-43
2022/01/06 13:32:37;;;;;;;;;;;22.50;39.50;;;;;;6190157;28;21652;-44
2022/01/06 13:35:47;;;;;;;;;;;22.80;39.60;;;;;;6221407;28;19965;-45
2022/01/06 13:38:48;;;;;;;;;;;22.50;39.40;;;;;;6215430;28;19928;-45
2022/01/06 13:41:50;;;;;;;;;;;22.90;39.70;;;;;;6216760;28;19928;-44
2022/01/06 13:44:56;;;;;;;;;;;22.40;39.40;;;;;;6208000;28;20001;-45
2022/01/06 13:48:00;;;;;;;;;;;22.80;39.60;;;;;;6212767;28;19928;-46
2022/01/06 13:51:11;;;;;;;;;;;22.50;39.40;;;;;;6218210;28;20098;-44
2022/01/06 13:54:12;;;;;;;;;;;22.60;39.40;;;;;;6184413;28;20520;-45
2022/01/06 13:57:17;;;;;;;;;;;22.80;39.60;;;;;;6200584;28;21238;-43
2022/01/06 14:00:20;;;;;;;;;;;22.90;39.60;;;;;;6194413;28;19928;-44
2022/01/06 14:03:23;;;;;;;;;;;22.90;39.60;;;;;;6212324;28;19935;-44
2022/01/06 14:06:25;;;;;;;;;;;22.40;39.30;;;;;;6221242;28;20074;-43
2022/01/06 14:09:27;;;;;;;;;;;22.60;39.50;;;;;;6212138;28;19927;-44
2022/01/06 14:12:28;;;;;;;;;;;22.90;39.90;;;;;;6217891;28;19927;-42
2022/01/06 14:15:30;;;;;;;;;;;22.90;39.60;;;;;;6212552;28;22788;-42
2022/01/06 14:18:32;;;;;;;;;;;22.60;39.40;;;;;;6226556;28;21823;-48
2022/01/06 14:21:33;;;;;;;;;;;22.80;39.50;;;;;;6211588;28;19928;-46
2022/01/06 14:24:35;;;;;;;;;;;22.60;39.50;;;;;;6210651;28;19928;-45
2022/01/06 14:27:37;;;;;;;;;;;22.40;39.30;;;;;;6212409;28;20021;-45
2022/01/06 14:30:39;;;;;;;;;;;22.70;39.40;;;;;;6221418;28;20065;-44
2022/01/06 14:33:41;;;;;;;;;;;22.60;39.40;;;;;;6213223;28;19928;-44
2022/01/06 14:36:42;;;;;;;;;;;22.50;39.30;;;;;;6174326;28;21206;-44
2022/01/06 14:39:44;;;;;;;;;;;22.50;39.30;;;;;;6199298;28;20070;-44
2022/01/06 14:42:45;;;;;;;;;;;22.80;39.60;;;;;;6186198;28;20848;-45
2022/01/06 14:45:47;;;;;;;;;;;22.40;39.30;;;;;;6193881;28;20430;-43
2022/01/06 14:48:49;;;;;;;;;;;22.60;39.30;;;;;;6211473;28;22197;-43
2022/01/06 14:51:55;;;;;;;;;;;22.80;39.50;;;;;;6207420;28;20069;-43
2022/01/06 14:54:56;;;;;;;;;;;23.00;39.60;;;;;;6197476;28;21137;-43
2022/01/06 14:57:58;;;;;;;;;;;22.60;39.40;;;;;;6211478;28;19998;-50
2022/01/06 15:01:00;;;;;;;;;;;22.90;39.80;;;;;;6222021;28;19974;-43
2022/01/06 15:04:02;;;;;;;;;;;22.80;39.50;;;;;;6197416;28;19928;-44
2022/01/06 15:07:03;;;;;;;;;;;22.70;39.50;;;;;;6220571;28;20039;-41
2022/01/06 15:10:06;;;;;;;;;;;22.50;39.40;;;;;;6202123;28;19934;-42
2022/01/06 15:13:07;;;;;;;;;;;22.70;39.60;;;;;;6217740;28;19934;-45
2022/01/06 15:16:09;;;;;;;;;;;22.40;39.30;;;;;;6217068;28;20034;-43
2022/01/06 15:19:11;;;;;;;;;;;23.30;39.70;;;;;;6195877;28;19934;-42
2022/01/06 15:22:13;;;;;;;;;;;22.60;39.50;;;;;;6194189;28;19928;-44
2022/01/06 15:25:15;;;;;;;;;;;22.90;39.60;;;;;;6199658;28;20903;-42
2022/01/06 15:28:16;;;;;;;;;;;22.80;39.50;;;;;;6192887;28;19931;-43
2022/01/06 15:31:18;;;;;;;;;;;22.60;39.40;;;;;;6179870;28;19929;-42
2022/01/06 15:34:19;;;;;;;;;;;22.20;39.10;;;;;;6197728;28;22025;-44
2022/01/06 15:37:21;;;;;;;;;;;22.80;39.50;;;;;;6191206;28;20732;-41
2022/01/06 15:40:22;;;;;;;;;;;22.40;39.50;;;;;;6198601;28;19932;-43
2022/01/06 15:43:24;;;;;;;;;;;22.60;39.40;;;;;;6199358;28;20034;-43
2022/01/06 15:46:27;;;;;;;;;;;22.80;39.50;;;;;;6196686;28;21261;-42
2022/01/06 15:49:28;;;;;;;;;;;23.10;39.60;;;;;;6217905;28;19931;-43
2022/01/06 15:52:30;;;;;;;;;;;22.50;39.20;;;;;;6194414;28;19997;-43
2022/01/06 15:55:31;;;;;;;;;;;22.30;39.20;;;;;;6207311;28;20035;-42
2022/01/06 15:58:33;;;;;;;;;;;22.70;39.40;;;;;;6193250;28;20755;-43
2022/01/06 16:08:13;;;;;;;;;;;22.90;39.40;;;;;;6202197;28;19928;-44
2022/01/06 16:11:14;;;;;;;;;;;22.40;39.20;;;;;;6195929;28;19935;-43
2022/01/06 16:14:17;;;;;;;;;;;22.10;39.00;;;;;;6215701;28;19967;-44
2022/01/06 16:17:19;;;;;;;;;;;23.00;39.40;;;;;;6213572;28;19934;-43
2022/01/06 16:20:20;;;;;;;;;;;22.50;39.30;;;;;;6206085;28;19928;-43
2022/01/06 16:23:22;;;;;;;;;;;22.70;39.30;;;;;;6178827;28;20247;-43
2022/01/06 16:26:23;;;;;;;;;;;23.00;39.40;;;;;;6165345;28;20388;-45
2022/01/06 16:29:24;;;;;;;;;;;22.60;39.40;;;;;;6194273;28;19928;-45
2022/01/06 16:32:27;;;;;;;;;;;22.60;39.30;;;;;;6215350;28;20808;-42
2022/01/06 16:35:29;;;;;;;;;;;22.20;39.00;;;;;;6203823;28;19927;-43
2022/01/06 16:38:30;;;;;;;;;;;22.70;39.30;;;;;;6205746;28;19959;-43
2022/01/06 16:41:32;;;;;;;;;;;22.70;39.30;;;;;;6219529;28;19935;-43
2022/01/06 16:44:33;;;;;;;;;;;22.60;39.20;;;;;;6191527;28;20056;-41
2022/01/06 16:47:35;;;;;;;;;;;22.50;39.20;;;;;;6169144;28;20080;-44
2022/01/06 16:50:37;;;;;;;;;;;22.80;39.30;;;;;;6200219;28;20042;-45
2022/01/06 16:53:38;;;;;;;;;;;22.40;39.20;;;;;;6208180;28;19928;-44
2022/01/06 16:56:39;;;;;;;;;;;22.40;39.20;;;;;;6216391;28;20328;-43
2022/01/06 16:59:41;;;;;;;;;;;22.30;39.10;;;;;;6217627;28;19934;-44
2022/01/06 17:02:43;;;;;;;;;;;22.60;39.30;;;;;;6213983;28;19931;-45
2022/01/06 17:05:45;;;;;;;;;;;22.60;39.20;;;;;;6212781;28;19927;-45
2022/01/06 17:08:47;;;;;;;;;;;22.70;39.30;;;;;;6224595;28;19928;-42
2022/01/06 17:11:48;;;;;;;;;;;23.00;39.50;;;;;;6213916;28;19934;-45
2022/01/06 17:14:49;;;;;;;;;;;22.70;39.30;;;;;;6227730;28;19924;-42
2022/01/06 17:17:51;;;;;;;;;;;22.30;39.00;;;;;;6238372;28;19928;-43
2022/01/06 17:20:53;;;;;;;;;;;22.50;39.20;;;;;;6236252;28;19934;-43
2022/01/06 17:24:16;;;;;;;;;;;22.30;39.10;;;;;;6238773;28;19928;-45
2022/01/06 17:27:18;;;;;;;;;;;22.80;39.30;;;;;;6243769;28;19932;-43
2022/01/06 17:30:19;;;;;;;;;;;22.70;39.30;;;;;;6256830;28;19923;-41
2022/01/06 17:33:21;;;;;;;;;;;22.60;39.20;;;;;;6242242;28;20938;-42
2022/01/06 17:36:23;;;;;;;;;;;22.20;38.90;;;;;;6247625;28;19928;-43
2022/01/06 17:39:25;;;;;;;;;;;22.50;39.10;;;;;;6256991;28;19928;-43
2022/01/06 17:42:28;;;;;;;;;;;22.30;39.10;;;;;;6223459;28;20054;-42
2022/01/06 17:45:30;;;;;;;;;;;22.50;39.00;;;;;;6249299;28;19999;-44
2022/01/06 17:48:32;;;;;;;;;;;22.30;39.00;;;;;;6260828;28;20085;-44
2022/01/06 17:51:33;;;;;;;;;;;22.60;39.10;;;;;;6260959;28;19971;-43
2022/01/06 17:54:35;;;;;;;;;;;22.20;38.90;;;;;;6268727;28;19993;-48